Ash, NC

6:56 PM EST on March 02, 2015 (GMT -0500)
Grand Strand | Change Station
CLOSE
Current Station
Airport
Location: North Myrtle Beach,
Elevation: 33 ft
Nearby Weather Stations

Elev 33 ft 33.81 °N, 78.72 °W | Updated 1 hour ago

Partly Cloudy
Partly Cloudy
56 °F
Feels Like 56 °F
N
4
Wind Variable Wind from ESE

Today
High -- | Low -- °F
--% Chance of Precip.
Yesterday
High -- | Low -- °F
Precip. -- in
6:41 AM 6:11 PM
Waxing Gibbous, 93% visible
Pressure 30.25 in
Visibility 10.0 miles
Clouds Clear
Dew Point 49 °F
Humidity 77%
Rainfall 0.00 in
Snow Depth Not available.
UV 0 out of 12
Pollen 6.30 out of 12
Air Quality Not available.
Flu Activity Not available.
METAR KCRE 022253Z 12003KT 10SM CLR 13/09 A3024 RMK AO1 SLP241 T01330094

More Conditions Fewer Conditions

Pressure 30.25 in
Visibility 10.0 miles
Clouds Clear
Dew Point 49 °F
Humidity 77%
Rainfall 0.00 in
Snow Depth Not available.
UV 0 out of 12
Pollen 6.30 out of 12
Air Quality Not available.
Flu Activity Not available.
METAR KCRE 022253Z 12003KT 10SM CLR 13/09 A3024 RMK AO1 SLP241 T01330094

More Conditions Fewer Conditions

10-Day Weather Forecast

Almanac

Astronomy

Mar. 02, 2015 Rise Set
Actual Time
Civil Twilight
Nautical Twilight
Astronomical Twilight
Moon
Length of Visible Light
Length of Day
Tomorrow will be .
, % of the Moon is Illuminated

Today's Extremes

State Highs State Lows

Community

WunderPhotos

Upload Photos

1,801,998 photos uploaded!

WunderBlogs® & News

Nearby

Air Quality

  Air Quality AQ Index Pollutant
Not available.

Snow Depth

Station Depth Elevation

Earthquake Activity

City Distance Mag. Time & Date
Minimum magnitude displayed is 2.5.

Coastal Water Temperatures

Place Temperature

Nearby Weather Stations